Time;durP1;ratioP1;P1;durP2;ratioP2;P2;SDS_P1;SDS_P2;PMS_P1;PMS_P2;Temp;Humidity;BMP_temperature;BMP_pressure;BME280_temperature;BME280_humidity;BME280_pressure;Samples;Min_cycle;Max_cycle;Signal;HPM_P1;HPM_P2
2020/12/26 00:02:17;;;;;;;10.30;4.82;;;3.90;70.20;;;;;;2480876;55;20949;-71
2020/12/26 00:04:44;;;;;;;10.45;4.97;;;3.90;70.30;;;;;;2490736;55;20964;-71
2020/12/26 00:07:15;;;;;;;9.77;4.68;;;4.00;70.40;;;;;;2470686;55;21045;-71
2020/12/26 00:09:41;;;;;;;11.32;5.60;;;4.00;70.40;;;;;;2272858;55;21030;-70
2020/12/26 00:12:08;;;;;;;9.70;5.07;;;4.00;70.40;;;;;;2466840;55;21022;-72
2020/12/26 00:14:34;;;;;;;9.15;5.43;;;4.00;70.30;;;;;;2253216;56;20996;-73
2020/12/26 00:17:02;;;;;;;13.85;5.85;;;3.90;70.20;;;;;;2242915;56;21540;-73
2020/12/26 00:19:29;;;;;;;9.13;4.30;;;3.90;70.10;;;;;;2489744;55;21782;-73
2020/12/26 00:21:56;;;;;;;10.40;4.78;;;3.90;70.10;;;;;;2485877;55;21115;-72
2020/12/26 00:24:23;;;;;;;9.57;4.95;;;3.90;70.00;;;;;;2480884;55;20941;-72
2020/12/26 00:26:52;;;;;;;9.65;4.45;;;3.90;70.00;;;;;;2263403;55;21761;-72
2020/12/26 00:29:18;;;;;;;10.55;4.60;;;3.90;70.00;;;;;;2489974;55;21048;-72
2020/12/26 00:31:47;;;;;;;10.70;4.75;;;3.90;70.10;;;;;;2490666;55;21108;-72
2020/12/26 00:34:14;;;;;;;11.98;4.45;;;3.90;70.10;;;;;;2261767;56;21260;-73
2020/12/26 00:36:41;;;;;;;8.65;3.97;;;3.90;70.10;;;;;;2490978;55;20974;-72
2020/12/26 00:39:07;;;;;;;9.55;4.30;;;3.90;70.20;;;;;;2458943;55;21858;-73
2020/12/26 00:41:34;;;;;;;10.18;4.85;;;3.90;70.30;;;;;;2255220;56;21007;-73
2020/12/26 00:44:03;;;;;;;8.88;4.53;;;3.90;70.20;;;;;;2480204;55;20964;-73
2020/12/26 00:46:29;;;;;;;13.52;5.53;;;3.80;70.20;;;;;;2263473;55;22098;-72
2020/12/26 00:48:56;;;;;;;9.95;4.53;;;3.80;70.20;;;;;;2261162;55;20953;-72
2020/12/26 00:51:29;;;;;;;8.93;4.97;;;3.80;70.30;;;;;;2489970;55;21037;-72
2020/12/26 00:53:56;;;;;;;8.05;4.10;;;3.90;70.30;;;;;;2268370;55;21526;-72
2020/12/26 00:56:23;;;;;;;9.10;3.97;;;3.80;70.10;;;;;;2476882;55;21072;-73
2020/12/26 00:58:49;;;;;;;8.68;4.03;;;3.80;70.10;;;;;;2490397;55;21032;-73
2020/12/26 01:01:16;;;;;;;7.93;3.30;;;3.80;70.10;;;;;;2482428;55;21080;-73
2020/12/26 01:03:42;;;;;;;10.18;4.20;;;3.80;70.00;;;;;;2256139;56;21044;-72
2020/12/26 01:06:16;;;;;;;10.65;4.43;;;3.80;69.80;;;;;;2267428;55;20972;-72
2020/12/26 01:08:43;;;;;;;12.85;4.65;;;3.80;69.80;;;;;;2453330;55;20993;-72
2020/12/26 01:11:09;;;;;;;8.52;4.30;;;3.80;69.80;;;;;;2482811;55;21087;-72
2020/12/26 01:13:36;;;;;;;9.07;4.20;;;3.80;69.90;;;;;;2256460;55;21985;-73
2020/12/26 01:16:02;;;;;;;11.05;4.55;;;3.70;70.00;;;;;;2256556;56;20956;-72
2020/12/26 01:18:29;;;;;;;9.10;4.62;;;3.70;70.10;;;;;;2263078;55;21028;-73
2020/12/26 01:20:56;;;;;;;7.35;3.33;;;3.70;70.20;;;;;;2233644;56;21016;-73
2020/12/26 01:23:23;;;;;;;9.13;4.07;;;3.70;70.40;;;;;;2485856;55;21012;-72
2020/12/26 01:25:50;;;;;;;9.80;3.50;;;3.80;70.60;;;;;;2257409;55;21084;-73
2020/12/26 01:28:19;;;;;;;7.32;3.72;;;3.80;70.60;;;;;;2459366;55;21425;-73
2020/12/26 01:30:46;;;;;;;10.07;4.25;;;3.80;70.60;;;;;;2459787;55;21139;-72
2020/12/26 01:33:13;;;;;;;8.65;4.53;;;3.80;70.60;;;;;;2459273;56;21042;-73
2020/12/26 01:35:39;;;;;;;7.93;3.65;;;3.80;70.60;;;;;;2458241;56;21571;-73
2020/12/26 01:38:06;;;;;;;8.02;4.10;;;3.80;70.50;;;;;;2459261;56;21831;-73
2020/12/26 01:40:32;;;;;;;7.57;3.85;;;3.80;70.50;;;;;;2468289;55;20941;-73
2020/12/26 01:42:59;;;;;;;7.07;3.40;;;3.80;70.50;;;;;;2484222;55;20999;-72
2020/12/26 01:45:26;;;;;;;5.80;3.00;;;3.80;70.60;;;;;;2484711;55;20917;-73
2020/12/26 01:47:52;;;;;;;6.95;3.20;;;3.80;70.70;;;;;;2485102;55;20976;-72
2020/12/26 01:50:18;;;;;;;5.62;2.80;;;3.80;70.70;;;;;;2239984;56;21013;-71
2020/12/26 01:52:45;;;;;;;5.95;3.10;;;3.80;70.70;;;;;;2485386;55;20980;-73
2020/12/26 01:55:12;;;;;;;5.55;2.70;;;3.80;70.60;;;;;;2483872;55;21032;-72
2020/12/26 01:57:41;;;;;;;5.78;2.62;;;3.80;70.60;;;;;;2484361;55;21096;-73
2020/12/26 02:00:10;;;;;;;9.07;3.12;;;3.80;70.60;;;;;;2260851;56;21826;-71
2020/12/26 02:02:36;;;;;;;6.97;3.12;;;3.80;70.50;;;;;;2265156;56;20977;-72
2020/12/26 02:05:03;;;;;;;5.97;2.62;;;3.90;70.50;;;;;;2246954;56;21000;-72
2020/12/26 02:07:30;;;;;;;6.43;3.33;;;3.80;70.40;;;;;;2484912;55;20917;-72
2020/12/26 02:09:57;;;;;;;7.93;3.03;;;3.80;70.30;;;;;;2260551;56;21669;-73
2020/12/26 02:12:24;;;;;;;5.70;2.45;;;3.80;70.20;;;;;;2257481;56;20961;-72
2020/12/26 02:14:50;;;;;;;5.25;2.30;;;3.80;70.10;;;;;;2241141;56;21024;-72
2020/12/26 02:17:24;;;;;;;5.80;2.35;;;3.80;70.10;;;;;;2484940;55;20885;-72
2020/12/26 02:19:52;;;;;;;6.85;3.28;;;3.80;70.00;;;;;;2233640;56;21000;-73
2020/12/26 02:22:19;;;;;;;6.55;3.40;;;3.80;70.00;;;;;;2478762;55;20993;-73
2020/12/26 02:24:45;;;;;;;6.82;3.08;;;3.80;70.00;;;;;;2484804;55;21037;-72
2020/12/26 02:27:12;;;;;;;5.25;2.47;;;3.80;70.10;;;;;;2241856;56;21092;-73
2020/12/26 02:29:38;;;;;;;6.97;3.30;;;3.80;70.40;;;;;;2258249;56;20987;-73
2020/12/26 02:32:08;;;;;;;7.57;3.58;;;3.80;70.60;;;;;;2485247;55;21036;-72
2020/12/26 02:34:35;;;;;;;8.02;3.12;;;3.80;70.70;;;;;;2257789;57;21004;-72
2020/12/26 02:37:02;;;;;;;6.30;2.42;;;3.80;70.80;;;;;;2256428;56;20948;-72
2020/12/26 02:39:29;;;;;;;6.80;2.40;;;3.80;71.00;;;;;;2484596;55;20961;-72
2020/12/26 02:41:55;;;;;;;7.82;2.78;;;3.80;71.10;;;;;;2257341;57;21900;-72
2020/12/26 02:44:21;;;;;;;7.72;2.83;;;3.90;71.30;;;;;;2259647;56;20933;-72
2020/12/26 02:46:50;;;;;;;7.15;3.15;;;3.90;71.30;;;;;;2485402;55;21567;-72
2020/12/26 02:49:17;;;;;;;5.95;2.85;;;3.90;71.40;;;;;;2256426;56;21004;-72
2020/12/26 02:51:44;;;;;;;4.90;2.45;;;4.00;71.50;;;;;;2259884;56;21056;-73
2020/12/26 02:54:11;;;;;;;7.15;3.15;;;4.00;71.50;;;;;;2483794;55;20961;-73
2020/12/26 02:56:39;;;;;;;7.40;2.92;;;4.00;71.50;;;;;;2253574;56;20968;-73
2020/12/26 02:59:09;;;;;;;5.37;2.65;;;4.00;71.50;;;;;;2260543;56;20945;-73
2020/12/26 03:01:39;;;;;;;8.13;3.10;;;4.00;71.40;;;;;;2485634;55;21025;-73
2020/12/26 03:04:06;;;;;;;9.73;3.70;;;4.00;71.40;;;;;;2484398;55;21065;-72
2020/12/26 03:06:36;;;;;;;7.18;3.28;;;4.10;71.40;;;;;;2260110;56;21008;-72
2020/12/26 03:09:03;;;;;;;7.35;3.05;;;4.10;71.40;;;;;;2244760;56;21564;-72
2020/12/26 03:11:29;;;;;;;8.02;3.83;;;4.10;71.40;;;;;;2251924;56;20997;-73
2020/12/26 03:13:56;;;;;;;6.97;3.15;;;4.10;71.30;;;;;;2257046;57;21818;-73
2020/12/26 03:16:23;;;;;;;7.80;3.17;;;4.10;71.30;;;;;;2255609;56;21143;-73
2020/12/26 03:18:50;;;;;;;6.72;3.22;;;4.10;71.20;;;;;;2485342;55;21418;-73
2020/12/26 03:21:16;;;;;;;7.20;2.75;;;4.20;71.30;;;;;;2478911;55;21057;-73
2020/12/26 03:23:43;;;;;;;6.40;2.87;;;4.20;71.30;;;;;;2483622;55;21815;-72
2020/12/26 03:26:10;;;;;;;6.35;2.92;;;4.20;71.30;;;;;;2484143;55;21023;-73
2020/12/26 03:28:37;;;;;;;6.47;2.67;;;4.20;71.30;;;;;;2242280;56;21684;-72
2020/12/26 03:31:04;;;;;;;6.47;2.45;;;4.20;71.30;;;;;;2260932;56;21121;-72
2020/12/26 03:33:33;;;;;;;7.10;2.80;;;4.20;71.30;;;;;;2264220;56;21556;-73
2020/12/26 03:36:00;;;;;;;8.00;3.08;;;4.20;71.20;;;;;;2257301;56;21535;-72
2020/12/26 03:38:27;;;;;;;5.40;2.55;;;4.30;71.30;;;;;;2258790;56;21032;-72
2020/12/26 03:40:53;;;;;;;6.43;2.83;;;4.30;71.20;;;;;;2485500;55;21080;-73
2020/12/26 03:43:20;;;;;;;6.25;3.00;;;4.30;71.20;;;;;;2260186;56;21021;-73
2020/12/26 03:45:47;;;;;;;6.90;2.92;;;4.30;71.20;;;;;;2484054;55;20997;-72
2020/12/26 03:48:13;;;;;;;5.65;2.50;;;4.30;71.20;;;;;;2257078;57;20981;-72
2020/12/26 03:50:40;;;;;;;6.03;2.55;;;4.30;71.10;;;;;;2260518;56;21117;-71
2020/12/26 03:53:07;;;;;;;6.10;2.70;;;4.30;71.10;;;;;;2485075;55;21009;-72
2020/12/26 03:55:35;;;;;;;8.32;3.53;;;4.30;71.10;;;;;;2241856;57;21879;-72
2020/12/26 03:58:02;;;;;;;8.02;3.15;;;4.30;71.10;;;;;;2252598;55;22025;-72
2020/12/26 04:00:29;;;;;;;6.45;2.97;;;4.30;71.20;;;;;;2484877;55;21741;-73
2020/12/26 04:02:57;;;;;;;6.37;3.00;;;4.30;71.20;;;;;;2261867;55;21055;-72
2020/12/26 04:05:23;;;;;;;8.50;3.62;;;4.30;71.20;;;;;;2250738;56;20960;-72
2020/12/26 04:07:51;;;;;;;6.45;2.65;;;4.40;71.20;;;;;;2485536;55;20969;-72
2020/12/26 04:10:17;;;;;;;7.40;3.35;;;4.40;71.20;;;;;;2257850;57;20992;-73
2020/12/26 04:12:45;;;;;;;6.57;2.95;;;4.40;71.30;;;;;;2256580;56;21053;-72
2020/12/26 04:15:11;;;;;;;7.50;3.83;;;4.40;71.40;;;;;;2481664;55;20989;-71
2020/12/26 04:17:38;;;;;;;5.93;2.65;;;4.40;71.40;;;;;;2258053;56;21063;-71
2020/12/26 04:20:04;;;;;;;7.65;3.47;;;4.40;71.50;;;;;;2451813;55;21004;-73
2020/12/26 04:22:34;;;;;;;8.70;4.05;;;4.50;71.60;;;;;;2455030;56;21067;-72
2020/12/26 04:25:00;;;;;;;7.32;3.47;;;4.50;71.40;;;;;;2236068;56;21879;-73
2020/12/26 04:27:29;;;;;;;5.97;2.92;;;4.50;71.30;;;;;;2236238;56;21027;-73
2020/12/26 04:29:57;;;;;;;6.97;3.22;;;4.50;71.30;;;;;;2236043;56;21047;-73
2020/12/26 04:32:26;;;;;;;8.30;3.00;;;4.50;71.30;;;;;;2467885;55;20988;-72
2020/12/26 04:34:53;;;;;;;6.25;3.20;;;4.50;71.20;;;;;;2480202;55;20972;-72
2020/12/26 04:37:19;;;;;;;6.32;3.40;;;4.50;71.40;;;;;;2490329;55;21923;-72
2020/12/26 04:39:47;;;;;;;6.50;3.22;;;4.50;71.30;;;;;;2267819;55;21009;-73
2020/12/26 04:42:13;;;;;;;6.35;2.92;;;4.50;71.40;;;;;;2265297;55;20964;-72
2020/12/26 04:44:40;;;;;;;6.15;3.22;;;4.60;71.60;;;;;;2255220;55;20984;-73
2020/12/26 04:47:09;;;;;;;6.35;2.85;;;4.60;71.60;;;;;;2490095;55;20948;-72
2020/12/26 04:49:39;;;;;;;5.45;2.55;;;4.60;71.70;;;;;;2489818;55;20980;-73
2020/12/26 04:52:10;;;;;;;7.35;2.87;;;4.60;71.70;;;;;;2488670;55;20946;-73
2020/12/26 04:54:45;;;;;;;6.95;2.72;;;4.70;71.80;;;;;;2262013;55;21332;-72
2020/12/26 04:57:14;;;;;;;9.32;3.50;;;4.70;71.70;;;;;;2251673;56;21841;-72
2020/12/26 04:59:41;;;;;;;7.32;3.25;;;4.70;71.80;;;;;;2265104;56;21012;-72
2020/12/26 05:02:09;;;;;;;9.07;3.67;;;4.70;71.70;;;;;;2489757;55;21016;-72
2020/12/26 05:04:36;;;;;;;8.75;3.25;;;4.70;71.50;;;;;;2261490;56;21163;-73
2020/12/26 05:07:02;;;;;;;8.18;3.37;;;4.70;71.40;;;;;;2265009;55;21830;-72
2020/12/26 05:09:31;;;;;;;7.10;3.08;;;4.70;71.40;;;;;;2490654;55;21057;-74
2020/12/26 05:11:58;;;;;;;7.85;3.50;;;4.80;71.40;;;;;;2263005;56;21032;-73
2020/12/26 05:14:28;;;;;;;8.40;4.15;;;4.80;71.40;;;;;;2261937;56;20977;-72
2020/12/26 05:16:56;;;;;;;10.27;3.78;;;4.80;71.40;;;;;;2258353;56;21023;-71
2020/12/26 05:19:22;;;;;;;7.95;3.50;;;4.80;71.30;;;;;;2266608;55;21030;-72
2020/12/26 05:21:52;;;;;;;7.32;3.30;;;4.80;71.30;;;;;;2472689;55;21672;-72
2020/12/26 05:24:19;;;;;;;8.93;4.57;;;4.80;71.30;;;;;;2262890;56;20949;-72
2020/12/26 05:26:52;;;;;;;8.85;3.80;;;4.80;71.30;;;;;;2262498;56;20960;-71
2020/12/26 05:29:20;;;;;;;9.82;4.03;;;4.60;71.10;;;;;;2262655;56;21040;-72
2020/12/26 05:32:08;;;;;;;9.15;4.07;;;4.80;71.30;;;;;;2491251;55;20997;-72
2020/12/26 05:34:41;;;;;;;8.23;4.00;;;4.80;71.30;;;;;;2491270;55;20956;-73
2020/12/26 05:37:07;;;;;;;8.80;3.53;;;4.80;71.30;;;;;;2265583;55;20977;-72
2020/12/26 05:39:37;;;;;;;7.80;3.53;;;4.90;71.50;;;;;;2260914;55;20960;-72
2020/12/26 05:42:05;;;;;;;7.80;3.67;;;4.80;71.40;;;;;;2261748;56;21020;-72
2020/12/26 05:44:33;;;;;;;8.88;4.43;;;4.90;71.50;;;;;;2490486;55;20969;-71
2020/12/26 05:47:00;;;;;;;8.40;4.03;;;4.90;71.50;;;;;;2261513;56;21123;-72
2020/12/26 05:49:32;;;;;;;7.12;2.97;;;4.90;71.50;;;;;;2261004;56;20985;-72
2020/12/26 05:52:21;;;;;;;6.95;3.40;;;4.90;71.50;;;;;;2490673;55;21004;-72
2020/12/26 05:54:49;;;;;;;7.10;3.15;;;4.90;71.30;;;;;;2464652;55;20945;-72
2020/12/26 05:57:16;;;;;;;7.82;3.42;;;4.90;71.40;;;;;;2265186;55;21020;-72
2020/12/26 05:59:52;;;;;;;6.05;3.25;;;4.90;71.40;;;;;;2263265;55;20952;-73
2020/12/26 06:02:25;;;;;;;6.55;3.45;;;4.90;71.40;;;;;;2266505;55;21046;-73
2020/12/26 06:05:04;;;;;;;6.22;3.42;;;4.90;71.30;;;;;;2238833;57;21037;-72
2020/12/26 06:07:36;;;;;;;7.32;3.70;;;5.00;71.40;;;;;;2261454;56;21024;-72
2020/12/26 06:10:12;;;;;;;6.75;3.53;;;5.00;71.30;;;;;;2261653;56;21015;-72
2020/12/26 06:12:38;;;;;;;5.80;3.25;;;5.00;71.20;;;;;;2265256;55;21060;-73
2020/12/26 06:15:14;;;;;;;7.90;3.60;;;4.90;71.10;;;;;;2262287;56;21031;-72
2020/12/26 06:17:40;;;;;;;6.50;2.95;;;4.90;71.10;;;;;;2262396;56;20967;-73
2020/12/26 06:20:07;;;;;;;6.65;3.20;;;4.90;71.20;;;;;;2261891;56;21541;-73
2020/12/26 06:22:55;;;;;;;8.00;3.37;;;5.00;71.30;;;;;;2265840;55;21040;-73
2020/12/26 06:25:22;;;;;;;7.62;3.15;;;4.90;71.00;;;;;;2227547;56;21056;-73
2020/12/26 06:28:08;;;;;;;9.55;2.87;;;4.90;71.20;;;;;;2489237;55;21012;-73
2020/12/26 06:30:37;;;;;;;6.22;2.33;;;4.90;71.20;;;;;;2266021;55;21043;-74
2020/12/26 06:33:06;;;;;;;6.65;2.87;;;5.00;71.40;;;;;;2490445;55;21087;-73
2020/12/26 06:35:32;;;;;;;7.22;3.45;;;5.00;71.40;;;;;;2262193;56;21419;-74
2020/12/26 06:38:19;;;;;;;6.25;3.10;;;5.00;71.40;;;;;;2256046;56;20944;-73
2020/12/26 06:40:58;;;;;;;7.82;3.00;;;5.00;71.20;;;;;;2265180;56;20996;-73
2020/12/26 06:46:57;;;;;;;7.97;3.25;;;5.00;71.30;;;;;;2244323;57;21056;-72
2020/12/26 06:49:23;;;;;;;7.00;3.47;;;5.00;70.60;;;;;;2264551;56;20992;-72
2020/12/26 06:51:50;;;;;;;9.00;4.12;;;5.00;71.00;;;;;;2253646;56;22115;-73
2020/12/26 06:54:41;;;;;;;7.87;4.05;;;4.90;70.90;;;;;;2260027;55;21518;-73
2020/12/26 06:57:07;;;;;;;9.48;3.85;;;4.90;70.90;;;;;;2261046;56;21039;-73
2020/12/26 06:59:35;;;;;;;7.60;3.67;;;4.90;71.00;;;;;;2261586;56;21044;-72
2020/12/26 07:02:10;;;;;;;7.90;3.40;;;4.90;71.20;;;;;;2491162;55;20944;-73
2020/12/26 07:04:40;;;;;;;7.07;3.42;;;4.90;71.10;;;;;;2248009;55;21012;-72
2020/12/26 07:07:12;;;;;;;7.87;3.90;;;4.90;71.20;;;;;;2262612;56;20996;-73
2020/12/26 07:10:02;;;;;;;7.97;3.35;;;4.90;71.20;;;;;;2262298;56;21056;-73
2020/12/26 07:12:41;;;;;;;6.43;3.05;;;4.90;71.10;;;;;;2464879;55;20997;-73
2020/12/26 07:15:08;;;;;;;7.22;3.85;;;5.00;71.40;;;;;;2490878;55;21033;-73
2020/12/26 07:17:35;;;;;;;8.20;3.50;;;4.90;71.40;;;;;;2255375;56;21473;-74
2020/12/26 07:20:03;;;;;;;6.93;3.83;;;5.00;71.50;;;;;;2261739;56;20956;-74
2020/12/26 07:22:30;;;;;;;10.45;4.25;;;5.00;71.50;;;;;;2464858;55;21119;-73
2020/12/26 07:25:15;;;;;;;9.65;4.43;;;4.90;71.40;;;;;;2490178;55;21016;-73
2020/12/26 07:27:41;;;;;;;9.82;4.12;;;5.00;71.40;;;;;;2490262;55;21369;-73
2020/12/26 07:30:14;;;;;;;8.75;4.47;;;5.00;71.60;;;;;;2240390;56;21004;-73
2020/12/26 07:32:57;;;;;;;8.52;3.87;;;5.00;71.60;;;;;;2476079;55;20964;-73
2020/12/26 07:35:35;;;;;;;7.50;4.00;;;5.00;71.60;;;;;;2249509;55;20989;-73
2020/12/26 07:38:12;;;;;;;8.35;4.30;;;5.00;71.70;;;;;;2250258;56;20985;-73
2020/12/26 07:40:46;;;;;;;9.30;4.60;;;5.00;71.60;;;;;;2488592;55;20941;-73
2020/12/26 07:43:16;;;;;;;10.68;4.45;;;5.00;71.70;;;;;;2268471;55;21714;-73
2020/12/26 07:45:45;;;;;;;9.05;4.85;;;5.00;71.80;;;;;;2245325;56;20971;-73
2020/12/26 07:48:12;;;;;;;9.93;4.30;;;5.10;71.90;;;;;;2268768;55;20968;-73
2020/12/26 07:50:39;;;;;;;8.68;4.62;;;5.10;72.00;;;;;;2253279;56;20960;-73
2020/12/26 07:53:10;;;;;;;9.73;4.25;;;5.10;72.10;;;;;;2464335;55;20949;-73
2020/12/26 07:55:36;;;;;;;8.30;3.87;;;5.10;72.20;;;;;;2243638;56;20965;-73
2020/12/26 07:58:07;;;;;;;7.95;3.75;;;5.20;72.40;;;;;;2263181;55;20980;-74
2020/12/26 08:00:36;;;;;;;9.10;4.20;;;5.20;72.50;;;;;;2261610;56;21028;-73
2020/12/26 08:03:04;;;;;;;12.10;4.32;;;5.10;72.40;;;;;;2266574;56;21000;-73
2020/12/26 08:05:35;;;;;;;6.82;3.67;;;5.30;72.50;;;;;;2261271;55;21028;-73
2020/12/26 08:08:11;;;;;;;9.50;4.18;;;5.30;72.40;;;;;;2264915;55;21012;-73
2020/12/26 08:10:38;;;;;;;9.27;3.92;;;5.40;72.50;;;;;;2464506;55;21072;-73
2020/12/26 08:13:05;;;;;;;8.68;4.35;;;5.40;72.60;;;;;;2261862;56;21032;-74
2020/12/26 08:15:32;;;;;;;8.45;4.22;;;5.50;72.70;;;;;;2268358;55;21884;-73
2020/12/26 08:18:00;;;;;;;8.02;4.07;;;5.50;72.70;;;;;;2482825;55;21293;-73
2020/12/26 08:20:30;;;;;;;7.03;3.95;;;5.50;72.70;;;;;;2489551;55;21005;-74
2020/12/26 08:22:57;;;;;;;10.48;4.15;;;5.60;72.80;;;;;;2466083;55;21955;-73
2020/12/26 08:25:25;;;;;;;8.77;4.40;;;5.60;72.80;;;;;;2257510;56;20945;-73
2020/12/26 08:27:51;;;;;;;7.93;3.97;;;5.60;72.70;;;;;;2268213;55;20948;-74
2020/12/26 08:30:27;;;;;;;9.25;4.57;;;5.70;72.70;;;;;;2253376;56;21512;-74
2020/12/26 08:34:01;;;;;;;8.90;4.90;;;5.70;72.60;;;;;;2264662;55;21024;-74
2020/12/26 08:36:28;;;;;;;327.10;71.60;;;5.80;72.20;;;;;;2491321;55;21049;-74
2020/12/26 08:38:59;;;;;;;164.90;49.00;;;5.80;72.30;;;;;;2257090;55;21028;-74
2020/12/26 08:41:26;;;;;;;73.12;24.12;;;5.80;72.50;;;;;;2469737;55;21083;-73
2020/12/26 08:43:55;;;;;;;35.58;13.50;;;5.80;72.40;;;;;;2253518;56;20976;-74
2020/12/26 08:46:23;;;;;;;24.60;9.32;;;5.90;72.50;;;;;;2262670;56;21083;-74
2020/12/26 08:48:50;;;;;;;17.60;7.35;;;5.90;72.70;;;;;;2261773;56;20965;-73
2020/12/26 08:51:21;;;;;;;11.18;4.65;;;5.90;72.80;;;;;;2266104;55;20997;-74
2020/12/26 08:53:48;;;;;;;10.35;4.53;;;5.90;72.70;;;;;;2486844;55;20962;-74
2020/12/26 08:56:15;;;;;;;9.10;4.53;;;6.00;72.90;;;;;;2261803;56;21056;-74
2020/12/26 08:58:48;;;;;;;8.00;3.97;;;6.00;73.00;;;;;;2489772;55;20936;-73
2020/12/26 09:01:15;;;;;;;8.15;3.87;;;6.10;73.80;;;;;;2271923;55;21014;-73
2020/12/26 09:03:48;;;;;;;9.15;3.70;;;6.10;73.10;;;;;;2255937;55;20936;-73
2020/12/26 09:06:14;;;;;;;;;;;6.20;73.10;;;;;;2493329;55;21016;-73
2020/12/26 09:08:41;;;;;;;7.28;4.07;;;6.20;72.10;;;;;;2264901;55;20208;-73
2020/12/26 09:11:11;;;;;;;10.35;3.62;;;6.30;72.80;;;;;;2256755;55;21144;-74
2020/12/26 09:13:40;;;;;;;8.35;4.03;;;6.30;72.50;;;;;;2259547;56;20987;-73
2020/12/26 09:16:12;;;;;;;6.93;3.83;;;6.30;72.20;;;;;;2261843;56;20945;-73
2020/12/26 09:18:45;;;;;;;10.05;4.45;;;6.30;72.10;;;;;;2261836;56;20976;-74
2020/12/26 09:21:25;;;;;;;5.65;3.10;;;6.40;71.90;;;;;;2490183;55;20972;-74
2020/12/26 09:23:53;;;;;;;7.85;4.43;;;6.40;71.70;;;;;;2263883;56;20988;-73
2020/12/26 09:26:23;;;;;;;9.18;4.10;;;6.40;71.90;;;;;;2262903;56;20956;-73
2020/12/26 09:29:09;;;;;;;7.90;3.80;;;6.40;71.80;;;;;;2247059;56;21127;-74
2020/12/26 09:31:36;;;;;;;8.10;4.30;;;6.40;71.40;;;;;;2260769;56;21076;-74
2020/12/26 09:34:16;;;;;;;8.10;3.87;;;6.40;71.90;;;;;;2489135;55;21004;-74
2020/12/26 09:36:43;;;;;;;6.70;4.12;;;6.40;72.70;;;;;;2261085;56;20999;-74
2020/12/26 09:39:09;;;;;;;7.20;3.72;;;6.40;72.30;;;;;;2264217;56;21021;-73
2020/12/26 09:41:43;;;;;;;9.27;5.20;;;6.40;72.30;;;;;;2261582;56;21871;-73
2020/12/26 09:44:09;;;;;;;6.47;4.20;;;6.50;72.30;;;;;;2264285;55;21016;-74
2020/12/26 09:46:37;;;;;;;7.50;4.95;;;6.50;72.20;;;;;;2258368;55;21049;-74
2020/12/26 09:49:03;;;;;;;9.93;4.37;;;6.50;72.20;;;;;;2265468;55;21018;-73
2020/12/26 09:51:31;;;;;;;8.15;4.43;;;6.50;72.20;;;;;;2472159;55;20952;-73
2020/12/26 09:53:57;;;;;;;10.75;4.82;;;6.60;72.30;;;;;;2262121;56;21012;-74
2020/12/26 09:56:27;;;;;;;6.15;3.70;;;6.60;72.30;;;;;;2464126;55;21024;-74
2020/12/26 09:58:54;;;;;;;7.97;4.37;;;6.60;72.40;;;;;;2491691;55;21042;-73
2020/12/26 10:01:21;;;;;;;7.03;4.00;;;6.60;72.40;;;;;;2477753;55;20976;-74
2020/12/26 10:03:49;;;;;;;9.45;4.75;;;6.70;72.40;;;;;;2490618;55;21090;-73
2020/12/26 10:06:16;;;;;;;9.55;4.97;;;6.70;72.50;;;;;;2488771;55;21012;-74
2020/12/26 10:08:43;;;;;;;6.53;4.07;;;6.80;72.70;;;;;;2411773;55;1893508;-74
2020/12/26 10:11:14;;;;;;;7.25;3.90;;;6.80;72.70;;;;;;2262830;55;20980;-73
2020/12/26 10:13:41;;;;;;;6.43;3.65;;;6.80;72.50;;;;;;2491082;55;21505;-73
2020/12/26 10:16:10;;;;;;;8.05;3.83;;;6.90;72.30;;;;;;2257075;55;21032;-73
2020/12/26 10:18:37;;;;;;;8.85;4.05;;;6.90;71.90;;;;;;2265119;56;21072;-73
2020/12/26 10:21:04;;;;;;;9.90;4.60;;;6.90;71.60;;;;;;2490082;55;20976;-74
2020/12/26 10:23:30;;;;;;;7.95;3.90;;;6.90;71.20;;;;;;2489301;55;21040;-74
2020/12/26 10:26:04;;;;;;;6.45;3.35;;;6.90;71.10;;;;;;2263148;56;20985;-73
2020/12/26 10:28:31;;;;;;;6.28;3.12;;;6.90;71.10;;;;;;2489477;55;20959;-73
2020/12/26 10:30:59;;;;;;;9.13;4.10;;;6.80;71.20;;;;;;2265130;56;21362;-74
2020/12/26 10:33:26;;;;;;;4.95;3.20;;;6.80;71.10;;;;;;2484511;55;21007;-73
2020/12/26 10:35:53;;;;;;;5.05;2.90;;;6.80;71.20;;;;;;2490133;55;20998;-73
2020/12/26 10:38:20;;;;;;;6.50;3.80;;;6.80;71.60;;;;;;2257054;56;21025;-74
2020/12/26 10:40:47;;;;;;;9.73;3.92;;;6.80;71.80;;;;;;2261255;56;20960;-74
2020/12/26 10:43:15;;;;;;;10.35;4.90;;;6.90;72.20;;;;;;2265945;55;21037;-73
2020/12/26 10:45:47;;;;;;;6.60;3.78;;;6.90;72.60;;;;;;2264892;56;20967;-74
2020/12/26 10:48:13;;;;;;;5.97;3.10;;;6.90;73.10;;;;;;2260298;56;21016;-73
2020/12/26 10:50:40;;;;;;;5.47;3.17;;;7.00;73.80;;;;;;2269119;55;21005;-73
2020/12/26 10:53:07;;;;;;;7.03;3.70;;;7.10;74.70;;;;;;2470146;55;21000;-73
2020/12/26 10:55:36;;;;;;;10.20;5.85;;;7.30;75.90;;;;;;2261587;56;20944;-73
2020/12/26 10:58:03;;;;;;;11.93;4.72;;;7.50;76.70;;;;;;2489949;55;20976;-73
2020/12/26 11:00:30;;;;;;;9.25;4.00;;;7.70;78.00;;;;;;2246836;56;21883;-73
2020/12/26 11:02:56;;;;;;;7.20;3.80;;;8.00;78.90;;;;;;2490170;55;21011;-74
2020/12/26 11:05:23;;;;;;;6.68;3.75;;;8.30;79.20;;;;;;2264783;56;20956;-73
2020/12/26 11:07:50;;;;;;;7.47;4.05;;;8.60;79.00;;;;;;2260740;55;21142;-73
2020/12/26 11:10:16;;;;;;;10.18;4.50;;;8.80;78.50;;;;;;2269341;55;20984;-73
2020/12/26 11:12:43;;;;;;;7.65;3.83;;;9.10;78.10;;;;;;2254265;56;20961;-73
2020/12/26 11:15:09;;;;;;;13.75;6.28;;;9.30;77.60;;;;;;2260512;55;20984;-74
2020/12/26 11:17:36;;;;;;;10.38;5.75;;;9.50;77.50;;;;;;2491505;55;21014;-73
2020/12/26 11:20:03;;;;;;;9.55;5.32;;;9.80;77.20;;;;;;2251096;56;20989;-73
2020/12/26 11:22:30;;;;;;;10.10;4.28;;;9.90;76.50;;;;;;2261917;56;21298;-73
2020/12/26 11:24:57;;;;;;;9.43;4.50;;;10.00;73.60;;;;;;2269082;55;21019;-73
2020/12/26 11:27:25;;;;;;;9.35;4.95;;;10.10;72.60;;;;;;2482927;55;20972;-73
2020/12/26 11:29:53;;;;;;;9.82;4.55;;;10.10;71.70;;;;;;2490670;55;21064;-73
2020/12/26 11:32:21;;;;;;;8.95;5.05;;;10.20;70.90;;;;;;2489992;55;21789;-73
2020/12/26 11:34:48;;;;;;;7.60;4.70;;;10.10;70.00;;;;;;2490144;55;20982;-73
2020/12/26 11:37:15;;;;;;;9.02;4.75;;;10.10;69.80;;;;;;2486147;55;21408;-73
2020/12/26 11:39:42;;;;;;;8.13;4.22;;;10.10;69.30;;;;;;2249117;56;20956;-73
2020/12/26 11:42:09;;;;;;;8.10;5.03;;;10.00;68.70;;;;;;2492283;55;21068;-73
2020/12/26 11:44:36;;;;;;;9.85;4.85;;;9.90;69.30;;;;;;2261023;55;21937;-73
2020/12/26 11:47:02;;;;;;;9.07;5.25;;;9.80;69.10;;;;;;2260093;56;21089;-73
2020/12/26 11:49:29;;;;;;;9.93;5.18;;;9.70;69.00;;;;;;2266253;55;21570;-74
2020/12/26 11:51:58;;;;;;;9.95;5.30;;;9.60;69.10;;;;;;2487912;55;20977;-73
2020/12/26 11:54:25;;;;;;;9.75;5.40;;;9.50;69.40;;;;;;2265500;55;21863;-74
2020/12/26 11:56:51;;;;;;;10.68;5.20;;;9.50;69.40;;;;;;2262554;56;21020;-74
2020/12/26 11:59:19;;;;;;;9.30;4.90;;;9.40;68.60;;;;;;2270500;55;21004;-73
2020/12/26 12:01:45;;;;;;;10.05;4.97;;;9.30;68.50;;;;;;2250057;56;21785;-73
2020/12/26 12:04:12;;;;;;;9.10;4.35;;;9.30;68.90;;;;;;2490665;55;20968;-73
2020/12/26 12:06:38;;;;;;;9.38;5.95;;;9.20;69.30;;;;;;2465078;55;20980;-73
2020/12/26 12:09:05;;;;;;;8.98;4.70;;;9.20;70.00;;;;;;2269119;55;20967;-73
2020/12/26 12:11:34;;;;;;;9.95;5.37;;;9.20;70.30;;;;;;2476386;55;21045;-73
2020/12/26 12:14:01;;;;;;;9.50;5.55;;;9.10;70.30;;;;;;2488757;55;21504;-73
2020/12/26 12:16:30;;;;;;;9.07;4.97;;;9.10;70.30;;;;;;2490089;55;20940;-73
2020/12/26 12:19:01;;;;;;;8.38;5.00;;;9.20;70.30;;;;;;2261654;56;21061;-73
2020/12/26 12:21:27;;;;;;;7.93;4.65;;;9.20;70.60;;;;;;2490918;55;20980;-73
2020/12/26 12:23:54;;;;;;;11.05;5.95;;;9.20;71.10;;;;;;2262426;56;21402;-73
2020/12/26 12:26:24;;;;;;;12.00;5.87;;;9.20;71.40;;;;;;2490652;55;21044;-73
2020/12/26 12:28:54;;;;;;;12.10;6.30;;;9.30;71.30;;;;;;2257245;55;21133;-73
2020/12/26 12:31:22;;;;;;;11.00;6.15;;;9.30;71.10;;;;;;2462873;55;21033;-73
2020/12/26 12:33:48;;;;;;;10.50;5.95;;;9.40;71.10;;;;;;2255863;55;21068;-73
2020/12/26 12:36:15;;;;;;;8.25;4.93;;;9.40;70.80;;;;;;2260294;56;20960;-72
2020/12/26 12:38:44;;;;;;;11.27;5.97;;;9.40;70.00;;;;;;2264184;55;21018;-73
2020/12/26 12:41:13;;;;;;;10.18;5.35;;;9.50;69.20;;;;;;2477067;55;21068;-73
2020/12/26 12:43:40;;;;;;;8.80;5.60;;;9.40;68.40;;;;;;2262031;56;22516;-73
2020/12/26 12:46:08;;;;;;;10.82;5.78;;;9.30;68.60;;;;;;2490704;55;21029;-74
2020/12/26 12:48:34;;;;;;;9.13;5.03;;;9.30;68.80;;;;;;2269200;55;21584;-72
2020/12/26 12:51:01;;;;;;;9.52;5.95;;;9.30;69.20;;;;;;2259556;56;21504;-73
2020/12/26 12:53:35;;;;;;;7.40;4.90;;;9.30;69.80;;;;;;2261673;56;21000;-73
2020/12/26 12:56:02;;;;;;;8.23;5.10;;;9.30;70.30;;;;;;2264888;55;21120;-72
2020/12/26 12:58:28;;;;;;;8.20;4.78;;;9.40;71.00;;;;;;2256499;55;21510;-72
2020/12/26 13:00:55;;;;;;;10.27;5.25;;;9.40;71.50;;;;;;2251533;56;21040;-73
2020/12/26 13:03:22;;;;;;;9.82;5.40;;;9.60;71.50;;;;;;2491943;55;20992;-74
2020/12/26 13:05:48;;;;;;;9.38;5.90;;;9.60;70.60;;;;;;2489653;55;20989;-73
2020/12/26 13:08:20;;;;;;;8.90;4.87;;;9.70;70.10;;;;;;2261881;56;21111;-73